sensor_id;sensor_type;location;lat;lon;timestamp;temperature;humidity
14687;DHT22;7431;49.440;11.084;2023-06-14T00:01:02;16.70;87.80
14687;DHT22;7431;49.440;11.084;2023-06-14T00:03:31;16.70;88.30
14687;DHT22;7431;49.440;11.084;2023-06-14T00:05:58;16.90;89.00
14687;DHT22;7431;49.440;11.084;2023-06-14T00:08:23;16.70;89.20
14687;DHT22;7431;49.440;11.084;2023-06-14T00:10:50;16.60;89.80
14687;DHT22;7431;49.440;11.084;2023-06-14T00:13:16;16.50;90.00
14687;DHT22;7431;49.440;11.084;2023-06-14T00:15:42;16.50;90.20
14687;DHT22;7431;49.440;11.084;2023-06-14T00:18:08;16.40;90.40
14687;DHT22;7431;49.440;11.084;2023-06-14T00:20:35;16.30;90.50
14687;DHT22;7431;49.440;11.084;2023-06-14T00:23:01;16.30;90.90
14687;DHT22;7431;49.440;11.084;2023-06-14T00:25:27;16.40;91.20
14687;DHT22;7431;49.440;11.084;2023-06-14T00:27:57;16.10;91.50
14687;DHT22;7431;49.440;11.084;2023-06-14T00:30:23;16.00;91.80
14687;DHT22;7431;49.440;11.084;2023-06-14T00:32:49;16.40;92.30
14687;DHT22;7431;49.440;11.084;2023-06-14T00:35:15;15.90;92.30
14687;DHT22;7431;49.440;11.084;2023-06-14T00:37:41;15.80;92.70
14687;DHT22;7431;49.440;11.084;2023-06-14T00:40:07;15.70;93.00
14687;DHT22;7431;49.440;11.084;2023-06-14T00:42:36;15.70;93.30
14687;DHT22;7431;49.440;11.084;2023-06-14T00:45:01;15.60;93.50
14687;DHT22;7431;49.440;11.084;2023-06-14T00:47:27;15.60;93.80
14687;DHT22;7431;49.440;11.084;2023-06-14T00:49:53;15.60;94.20
14687;DHT22;7431;49.440;11.084;2023-06-14T00:52:20;15.40;94.40
14687;DHT22;7431;49.440;11.084;2023-06-14T00:54:46;15.30;94.80
14687;DHT22;7431;49.440;11.084;2023-06-14T00:57:12;15.40;95.10
14687;DHT22;7431;49.440;11.084;2023-06-14T00:59:43;15.30;95.40
14687;DHT22;7431;49.440;11.084;2023-06-14T01:02:10;15.30;95.60
14687;DHT22;7431;49.440;11.084;2023-06-14T01:04:36;15.30;96.00
14687;DHT22;7431;49.440;11.084;2023-06-14T01:07:23;15.40;96.30
14687;DHT22;7431;49.440;11.084;2023-06-14T01:13:02;15.40;96.60
14687;DHT22;7431;49.440;11.084;2023-06-14T01:15:31;15.40;96.90
14687;DHT22;7431;49.440;11.084;2023-06-14T01:17:57;15.30;97.20
14687;DHT22;7431;49.440;11.084;2023-06-14T01:20:29;15.30;97.50
14687;DHT22;7431;49.440;11.084;2023-06-14T01:22:56;15.20;97.80
14687;DHT22;7431;49.440;11.084;2023-06-14T01:25:22;15.20;98.10
14687;DHT22;7431;49.440;11.084;2023-06-14T01:28:02;15.20;98.40
14687;DHT22;7431;49.440;11.084;2023-06-14T01:30:29;15.00;98.70
14687;DHT22;7431;49.440;11.084;2023-06-14T01:32:56;15.20;99.20
14687;DHT22;7431;49.440;11.084;2023-06-14T01:35:22;14.90;99.30
14687;DHT22;7431;49.440;11.084;2023-06-14T01:37:48;14.90;99.70
14687;DHT22;7431;49.440;11.084;2023-06-14T01:40:15;14.90;99.90
14687;DHT22;7431;49.440;11.084;2023-06-14T01:42:42;14.90;99.90
14687;DHT22;7431;49.440;11.084;2023-06-14T01:45:09;14.70;99.90
14687;DHT22;7431;49.440;11.084;2023-06-14T01:47:35;14.70;99.90
14687;DHT22;7431;49.440;11.084;2023-06-14T01:50:05;14.60;99.90
14687;DHT22;7431;49.440;11.084;2023-06-14T01:52:30;14.60;99.90
14687;DHT22;7431;49.440;11.084;2023-06-14T01:54:56;14.60;99.90
14687;DHT22;7431;49.440;11.084;2023-06-14T01:57:23;14.50;99.90
14687;DHT22;7431;49.440;11.084;2023-06-14T01:59:50;14.50;99.90
14687;DHT22;7431;49.440;11.084;2023-06-14T02:02:16;14.50;99.90
14687;DHT22;7431;49.440;11.084;2023-06-14T02:04:42;14.40;99.90
14687;DHT22;7431;49.440;11.084;2023-06-14T02:07:07;14.40;99.90
14687;DHT22;7431;49.440;11.084;2023-06-14T02:09:34;14.60;99.90
14687;DHT22;7431;49.440;11.084;2023-06-14T02:12:00;14.30;99.90
14687;DHT22;7431;49.440;11.084;2023-06-14T02:14:26;14.30;99.90
14687;DHT22;7431;49.440;11.084;2023-06-14T02:16:52;14.30;99.90
14687;DHT22;7431;49.440;11.084;2023-06-14T02:19:19;14.20;99.90
14687;DHT22;7431;49.440;11.084;2023-06-14T02:21:46;14.10;99.90
14687;DHT22;7431;49.440;11.084;2023-06-14T02:24:13;14.10;99.90
14687;DHT22;7431;49.440;11.084;2023-06-14T02:26:38;14.30;99.90
14687;DHT22;7431;49.440;11.084;2023-06-14T02:29:05;14.10;99.90
14687;DHT22;7431;49.440;11.084;2023-06-14T02:31:31;14.10;99.90
14687;DHT22;7431;49.440;11.084;2023-06-14T02:33:57;14.10;99.90
14687;DHT22;7431;49.440;11.084;2023-06-14T02:36:23;14.00;99.90
14687;DHT22;7431;49.440;11.084;2023-06-14T02:38:48;14.00;99.90
14687;DHT22;7431;49.440;11.084;2023-06-14T02:41:14;13.90;99.90
14687;DHT22;7431;49.440;11.084;2023-06-14T02:43:39;13.90;99.90
14687;DHT22;7431;49.440;11.084;2023-06-14T02:46:05;14.00;99.90
14687;DHT22;7431;49.440;11.084;2023-06-14T02:48:31;14.00;99.90
14687;DHT22;7431;49.440;11.084;2023-06-14T02:50:57;13.90;99.90
14687;DHT22;7431;49.440;11.084;2023-06-14T02:53:22;13.90;99.90
14687;DHT22;7431;49.440;11.084;2023-06-14T02:55:48;13.90;99.90
14687;DHT22;7431;49.440;11.084;2023-06-14T02:58:14;13.80;99.90
14687;DHT22;7431;49.440;11.084;2023-06-14T03:00:40;14.00;99.90
14687;DHT22;7431;49.440;11.084;2023-06-14T03:03:06;13.70;99.90
14687;DHT22;7431;49.440;11.084;2023-06-14T03:05:41;13.70;99.90
14687;DHT22;7431;49.440;11.084;2023-06-14T03:08:11;13.70;99.90
14687;DHT22;7431;49.440;11.084;2023-06-14T03:10:42;13.70;99.90
14687;DHT22;7431;49.440;11.084;2023-06-14T03:13:09;13.60;99.90
14687;DHT22;7431;49.440;11.084;2023-06-14T03:15:36;13.90;99.90
14687;DHT22;7431;49.440;11.084;2023-06-14T03:18:02;13.60;99.90
14687;DHT22;7431;49.440;11.084;2023-06-14T03:20:29;13.70;99.90
14687;DHT22;7431;49.440;11.084;2023-06-14T03:22:55;13.70;99.90
14687;DHT22;7431;49.440;11.084;2023-06-14T03:25:20;13.80;99.90
14687;DHT22;7431;49.440;11.084;2023-06-14T03:27:47;14.20;99.90
14687;DHT22;7431;49.440;11.084;2023-06-14T03:30:13;13.90;99.90
14687;DHT22;7431;49.440;11.084;2023-06-14T03:32:39;13.90;99.90
14687;DHT22;7431;49.440;11.084;2023-06-14T03:35:05;14.00;99.90
14687;DHT22;7431;49.440;11.084;2023-06-14T03:37:31;14.00;99.90
14687;DHT22;7431;49.440;11.084;2023-06-14T03:39:56;14.00;99.90
14687;DHT22;7431;49.440;11.084;2023-06-14T03:42:22;13.90;99.90
14687;DHT22;7431;49.440;11.084;2023-06-14T03:44:47;13.90;99.90
14687;DHT22;7431;49.440;11.084;2023-06-14T03:47:13;13.90;99.90
14687;DHT22;7431;49.440;11.084;2023-06-14T03:49:38;14.10;99.90
14687;DHT22;7431;49.440;11.084;2023-06-14T03:52:05;13.90;99.90
14687;DHT22;7431;49.440;11.084;2023-06-14T03:54:30;13.90;99.90
14687;DHT22;7431;49.440;11.084;2023-06-14T03:56:58;14.20;99.90
14687;DHT22;7431;49.440;11.084;2023-06-14T03:59:24;14.30;99.90
14687;DHT22;7431;49.440;11.084;2023-06-14T04:01:51;14.50;99.90
14687;DHT22;7431;49.440;11.084;2023-06-14T04:04:16;14.20;99.90
14687;DHT22;7431;49.440;11.084;2023-06-14T04:06:42;14.20;99.90
14687;DHT22;7431;49.440;11.084;2023-06-14T04:09:11;14.30;99.90
14687;DHT22;7431;49.440;11.084;2023-06-14T04:11:36;14.30;99.90
14687;DHT22;7431;49.440;11.084;2023-06-14T04:14:02;14.40;99.90
14687;DHT22;7431;49.440;11.084;2023-06-14T04:16:28;14.40;99.90
14687;DHT22;7431;49.440;11.084;2023-06-14T04:18:55;15.10;99.90
14687;DHT22;7431;49.440;11.084;2023-06-14T04:21:20;14.50;99.90
14687;DHT22;7431;49.440;11.084;2023-06-14T04:23:46;14.50;99.90
14687;DHT22;7431;49.440;11.084;2023-06-14T04:26:12;14.50;99.90
14687;DHT22;7431;49.440;11.084;2023-06-14T04:28:40;14.60;99.90
14687;DHT22;7431;49.440;11.084;2023-06-14T04:31:09;14.80;99.90
14687;DHT22;7431;49.440;11.084;2023-06-14T04:33:38;14.80;99.90
14687;DHT22;7431;49.440;11.084;2023-06-14T04:36:09;14.80;99.90
14687;DHT22;7431;49.440;11.084;2023-06-14T04:38:37;14.90;99.90
14687;DHT22;7431;49.440;11.084;2023-06-14T04:41:03;15.10;99.90
14687;DHT22;7431;49.440;11.084;2023-06-14T04:43:28;15.20;99.90
14687;DHT22;7431;49.440;11.084;2023-06-14T04:45:54;15.30;99.90
14687;DHT22;7431;49.440;11.084;2023-06-14T04:48:21;15.50;99.90
14687;DHT22;7431;49.440;11.084;2023-06-14T04:50:48;15.60;99.90
14687;DHT22;7431;49.440;11.084;2023-06-14T04:53:18;15.80;99.90
14687;DHT22;7431;49.440;11.084;2023-06-14T04:55:47;15.80;99.90
14687;DHT22;7431;49.440;11.084;2023-06-14T04:58:12;15.80;99.90
14687;DHT22;7431;49.440;11.084;2023-06-14T05:00:38;15.90;99.90
14687;DHT22;7431;49.440;11.084;2023-06-14T05:03:03;16.00;99.90
14687;DHT22;7431;49.440;11.084;2023-06-14T05:05:31;16.30;99.90
14687;DHT22;7431;49.440;11.084;2023-06-14T05:07:57;17.10;99.90
14687;DHT22;7431;49.440;11.084;2023-06-14T05:10:24;17.40;99.90
14687;DHT22;7431;49.440;11.084;2023-06-14T05:12:49;18.30;99.90
14687;DHT22;7431;49.440;11.084;2023-06-14T05:15:15;22.10;99.90
14687;DHT22;7431;49.440;11.084;2023-06-14T05:17:41;26.60;99.90
14687;DHT22;7431;49.440;11.084;2023-06-14T05:20:07;29.30;96.20
14687;DHT22;7431;49.440;11.084;2023-06-14T05:22:35;31.20;91.70
14687;DHT22;7431;49.440;11.084;2023-06-14T05:25:01;31.70;86.90
14687;DHT22;7431;49.440;11.084;2023-06-14T05:27:27;30.60;85.60
14687;DHT22;7431;49.440;11.084;2023-06-14T05:29:52;30.40;84.50
14687;DHT22;7431;49.440;11.084;2023-06-14T05:32:21;30.50;82.90
14687;DHT22;7431;49.440;11.084;2023-06-14T05:34:46;29.10;83.70
14687;DHT22;7431;49.440;11.084;2023-06-14T05:37:12;27.60;86.10
14687;DHT22;7431;49.440;11.084;2023-06-14T05:39:38;28.00;86.70
14687;DHT22;7431;49.440;11.084;2023-06-14T05:42:04;30.60;83.50
14687;DHT22;7431;49.440;11.084;2023-06-14T05:44:29;31.30;80.70
14687;DHT22;7431;49.440;11.084;2023-06-14T05:46:55;30.70;79.90
14687;DHT22;7431;49.440;11.084;2023-06-14T05:49:21;29.80;80.30
14687;DHT22;7431;49.440;11.084;2023-06-14T05:51:47;29.10;81.70
14687;DHT22;7431;49.440;11.084;2023-06-14T05:54:13;26.80;84.50
14687;DHT22;7431;49.440;11.084;2023-06-14T05:56:38;26.30;87.00
14687;DHT22;7431;49.440;11.084;2023-06-14T05:59:04;31.30;82.30
14687;DHT22;7431;49.440;11.084;2023-06-14T06:01:30;34.90;76.40
14687;DHT22;7431;49.440;11.084;2023-06-14T06:03:55;36.50;71.80
14687;DHT22;7431;49.440;11.084;2023-06-14T06:06:22;36.10;68.40
14687;DHT22;7431;49.440;11.084;2023-06-14T06:08:47;30.40;73.00
14687;DHT22;7431;49.440;11.084;2023-06-14T06:11:13;28.70;77.00
14687;DHT22;7431;49.440;11.084;2023-06-14T06:13:38;30.90;75.80
14687;DHT22;7431;49.440;11.084;2023-06-14T06:16:04;30.10;74.80
14687;DHT22;7431;49.440;11.084;2023-06-14T06:18:30;27.70;77.70
14687;DHT22;7431;49.440;11.084;2023-06-14T06:20:55;26.60;80.80
14687;DHT22;7431;49.440;11.084;2023-06-14T06:23:21;27.70;80.50
14687;DHT22;7431;49.440;11.084;2023-06-14T06:25:46;32.00;77.10
14687;DHT22;7431;49.440;11.084;2023-06-14T06:28:12;36.40;70.60
14687;DHT22;7431;49.440;11.084;2023-06-14T06:30:38;39.80;65.30
14687;DHT22;7431;49.440;11.084;2023-06-14T06:33:04;41.90;60.10
14687;DHT22;7431;49.440;11.084;2023-06-14T06:35:29;42.60;57.50
14687;DHT22;7431;49.440;11.084;2023-06-14T06:37:56;44.80;54.80
14687;DHT22;7431;49.440;11.084;2023-06-14T06:40:22;43.30;53.50
14687;DHT22;7431;49.440;11.084;2023-06-14T06:42:48;43.30;53.30
14687;DHT22;7431;49.440;11.084;2023-06-14T06:45:13;44.10;51.90
14687;DHT22;7431;49.440;11.084;2023-06-14T06:47:39;44.50;51.50
14687;DHT22;7431;49.440;11.084;2023-06-14T06:50:05;44.10;50.80
14687;DHT22;7431;49.440;11.084;2023-06-14T06:52:33;43.30;50.70
14687;DHT22;7431;49.440;11.084;2023-06-14T06:54:58;41.00;50.60
14687;DHT22;7431;49.440;11.084;2023-06-14T06:57:24;38.80;53.10
14687;DHT22;7431;49.440;11.084;2023-06-14T06:59:49;41.00;52.50
14687;DHT22;7431;49.440;11.084;2023-06-14T07:02:16;41.50;51.40
14687;DHT22;7431;49.440;11.084;2023-06-14T07:04:42;42.90;50.60
14687;DHT22;7431;49.440;11.084;2023-06-14T07:07:07;44.70;49.30
14687;DHT22;7431;49.440;11.084;2023-06-14T07:09:34;43.00;49.60
14687;DHT22;7431;49.440;11.084;2023-06-14T07:12:00;43.30;49.70
14687;DHT22;7431;49.440;11.084;2023-06-14T07:14:26;42.90;49.50
14687;DHT22;7431;49.440;11.084;2023-06-14T07:16:51;41.60;50.70
14687;DHT22;7431;49.440;11.084;2023-06-14T07:19:17;41.40;50.20
14687;DHT22;7431;49.440;11.084;2023-06-14T07:21:42;41.20;50.30
14687;DHT22;7431;49.440;11.084;2023-06-14T07:24:08;40.60;50.70
14687;DHT22;7431;49.440;11.084;2023-06-14T07:26:34;39.20;52.10
14687;DHT22;7431;49.440;11.084;2023-06-14T07:29:00;38.80;52.50
14687;DHT22;7431;49.440;11.084;2023-06-14T07:31:26;40.20;51.50
14687;DHT22;7431;49.440;11.084;2023-06-14T07:33:52;40.80;51.20
14687;DHT22;7431;49.440;11.084;2023-06-14T07:36:18;39.80;50.90
14687;DHT22;7431;49.440;11.084;2023-06-14T07:38:43;38.60;50.90
14687;DHT22;7431;49.440;11.084;2023-06-14T07:41:09;37.60;52.00
14687;DHT22;7431;49.440;11.084;2023-06-14T07:43:35;37.50;53.00
14687;DHT22;7431;49.440;11.084;2023-06-14T07:46:01;37.90;51.90
14687;DHT22;7431;49.440;11.084;2023-06-14T07:48:27;36.70;52.60
14687;DHT22;7431;49.440;11.084;2023-06-14T07:50:53;36.50;52.70
14687;DHT22;7431;49.440;11.084;2023-06-14T07:53:18;37.70;52.50
14687;DHT22;7431;49.440;11.084;2023-06-14T07:55:44;37.50;51.60
14687;DHT22;7431;49.440;11.084;2023-06-14T07:58:09;37.90;51.30
14687;DHT22;7431;49.440;11.084;2023-06-14T08:00:36;38.10;50.70
14687;DHT22;7431;49.440;11.084;2023-06-14T08:03:01;37.10;51.20
14687;DHT22;7431;49.440;11.084;2023-06-14T08:05:28;35.70;52.30
14687;DHT22;7431;49.440;11.084;2023-06-14T08:07:54;35.40;51.30
14687;DHT22;7431;49.440;11.084;2023-06-14T08:10:21;34.60;53.40
14687;DHT22;7431;49.440;11.084;2023-06-14T08:12:47;33.70;54.20
14687;DHT22;7431;49.440;11.084;2023-06-14T08:15:13;34.40;52.40
14687;DHT22;7431;49.440;11.084;2023-06-14T08:17:39;34.80;52.80
14687;DHT22;7431;49.440;11.084;2023-06-14T08:20:05;34.50;52.80
14687;DHT22;7431;49.440;11.084;2023-06-14T08:22:31;32.60;53.20
14687;DHT22;7431;49.440;11.084;2023-06-14T08:24:59;31.00;54.60
14687;DHT22;7431;49.440;11.084;2023-06-14T08:27:26;31.00;55.90
14687;DHT22;7431;49.440;11.084;2023-06-14T08:29:52;31.80;54.60
14687;DHT22;7431;49.440;11.084;2023-06-14T08:32:17;30.80;54.00
14687;DHT22;7431;49.440;11.084;2023-06-14T08:34:43;30.00;55.50
14687;DHT22;7431;49.440;11.084;2023-06-14T08:37:08;29.90;54.90
14687;DHT22;7431;49.440;11.084;2023-06-14T08:39:34;30.00;55.50
14687;DHT22;7431;49.440;11.084;2023-06-14T08:42:01;30.50;56.40
14687;DHT22;7431;49.440;11.084;2023-06-14T08:44:29;30.90;56.10
14687;DHT22;7431;49.440;11.084;2023-06-14T08:46:56;31.20;56.00
14687;DHT22;7431;49.440;11.084;2023-06-14T08:49:23;31.70;55.90
14687;DHT22;7431;49.440;11.084;2023-06-14T08:51:59;32.30;55.40
14687;DHT22;7431;49.440;11.084;2023-06-14T08:54:27;32.90;54.10
14687;DHT22;7431;49.440;11.084;2023-06-14T08:56:55;32.70;53.00
14687;DHT22;7431;49.440;11.084;2023-06-14T08:59:25;32.00;53.10
14687;DHT22;7431;49.440;11.084;2023-06-14T09:01:52;30.40;54.10
14687;DHT22;7431;49.440;11.084;2023-06-14T09:04:18;29.30;54.70
14687;DHT22;7431;49.440;11.084;2023-06-14T09:06:45;29.90;55.70
14687;DHT22;7431;49.440;11.084;2023-06-14T09:09:11;30.90;54.60
14687;DHT22;7431;49.440;11.084;2023-06-14T09:11:37;30.50;53.80
14687;DHT22;7431;49.440;11.084;2023-06-14T09:14:03;30.50;54.50
14687;DHT22;7431;49.440;11.084;2023-06-14T09:16:32;31.20;54.90
14687;DHT22;7431;49.440;11.084;2023-06-14T09:18:58;32.20;53.70
14687;DHT22;7431;49.440;11.084;2023-06-14T09:21:23;32.50;53.40
14687;DHT22;7431;49.440;11.084;2023-06-14T09:23:49;32.80;53.10
14687;DHT22;7431;49.440;11.084;2023-06-14T09:26:17;32.00;53.60
14687;DHT22;7431;49.440;11.084;2023-06-14T09:28:45;32.20;53.70
14687;DHT22;7431;49.440;11.084;2023-06-14T09:31:13;32.60;53.30
14687;DHT22;7431;49.440;11.084;2023-06-14T09:33:41;31.90;53.70
14687;DHT22;7431;49.440;11.084;2023-06-14T09:36:12;31.60;55.30
14687;DHT22;7431;49.440;11.084;2023-06-14T09:38:41;31.20;56.10
14687;DHT22;7431;49.440;11.084;2023-06-14T09:41:07;31.60;55.90
14687;DHT22;7431;49.440;11.084;2023-06-14T09:43:33;32.40;55.10
14687;DHT22;7431;49.440;11.084;2023-06-14T09:46:03;31.50;55.70
14687;DHT22;7431;49.440;11.084;2023-06-14T09:48:29;30.10;56.70
14687;DHT22;7431;49.440;11.084;2023-06-14T09:50:55;30.60;57.30
14687;DHT22;7431;49.440;11.084;2023-06-14T09:53:24;31.70;55.60
14687;DHT22;7431;49.440;11.084;2023-06-14T09:55:52;31.40;52.90
14687;DHT22;7431;49.440;11.084;2023-06-14T09:58:20;29.70;53.60
14687;DHT22;7431;49.440;11.084;2023-06-14T10:00:50;28.20;54.90
14687;DHT22;7431;49.440;11.084;2023-06-14T10:03:22;27.40;56.30
14687;DHT22;7431;49.440;11.084;2023-06-14T10:05:50;26.80;56.60
14687;DHT22;7431;49.440;11.084;2023-06-14T10:08:19;26.40;58.50
14687;DHT22;7431;49.440;11.084;2023-06-14T10:10:46;26.30;59.40
14687;DHT22;7431;49.440;11.084;2023-06-14T10:13:12;26.20;60.50
14687;DHT22;7431;49.440;11.084;2023-06-14T10:23:42;26.20;61.30
14687;DHT22;7431;49.440;11.084;2023-06-14T10:26:08;25.90;62.50
14687;DHT22;7431;49.440;11.084;2023-06-14T10:28:37;25.60;61.90
14687;DHT22;7431;49.440;11.084;2023-06-14T10:31:12;25.20;63.50
14687;DHT22;7431;49.440;11.084;2023-06-14T10:33:50;25.40;63.40
14687;DHT22;7431;49.440;11.084;2023-06-14T10:36:30;25.70;62.70
14687;DHT22;7431;49.440;11.084;2023-06-14T10:39:04;24.90;63.40
14687;DHT22;7431;49.440;11.084;2023-06-14T10:41:30;24.70;63.70
14687;DHT22;7431;49.440;11.084;2023-06-14T10:46:53;24.70;64.80
14687;DHT22;7431;49.440;11.084;2023-06-14T10:49:19;24.60;63.60
14687;DHT22;7431;49.440;11.084;2023-06-14T10:51:46;24.90;64.50
14687;DHT22;7431;49.440;11.084;2023-06-14T10:54:20;25.00;63.50
14687;DHT22;7431;49.440;11.084;2023-06-14T10:56:47;25.20;63.70
14687;DHT22;7431;49.440;11.084;2023-06-14T10:59:14;25.60;63.20
14687;DHT22;7431;49.440;11.084;2023-06-14T11:04:20;26.00;60.60
14687;DHT22;7431;49.440;11.084;2023-06-14T11:06:48;25.80;60.70
14687;DHT22;7431;49.440;11.084;2023-06-14T11:11:51;25.80;60.50
14687;DHT22;7431;49.440;11.084;2023-06-14T11:14:19;25.60;60.10
14687;DHT22;7431;49.440;11.084;2023-06-14T11:16:49;25.60;61.60
14687;DHT22;7431;49.440;11.084;2023-06-14T11:19:15;25.70;61.20
14687;DHT22;7431;49.440;11.084;2023-06-14T11:21:42;25.70;60.80
14687;DHT22;7431;49.440;11.084;2023-06-14T11:24:11;25.50;61.40
14687;DHT22;7431;49.440;11.084;2023-06-14T11:26:38;24.50;63.30
14687;DHT22;7431;49.440;11.084;2023-06-14T11:29:03;24.40;64.90
14687;DHT22;7431;49.440;11.084;2023-06-14T11:31:29;24.60;64.10
14687;DHT22;7431;49.440;11.084;2023-06-14T11:33:59;24.80;64.50
14687;DHT22;7431;49.440;11.084;2023-06-14T11:36:33;25.30;64.50
14687;DHT22;7431;49.440;11.084;2023-06-14T11:39:03;25.40;63.00
14687;DHT22;7431;49.440;11.084;2023-06-14T11:41:34;25.30;63.30
14687;DHT22;7431;49.440;11.084;2023-06-14T11:44:01;25.10;63.50
14687;DHT22;7431;49.440;11.084;2023-06-14T11:46:27;25.20;63.40
14687;DHT22;7431;49.440;11.084;2023-06-14T11:48:53;25.10;63.20
14687;DHT22;7431;49.440;11.084;2023-06-14T11:51:19;25.10;63.90
14687;DHT22;7431;49.440;11.084;2023-06-14T11:53:44;25.50;63.70
14687;DHT22;7431;49.440;11.084;2023-06-14T11:56:11;25.70;63.70
14687;DHT22;7431;49.440;11.084;2023-06-14T11:58:37;25.60;63.40
14687;DHT22;7431;49.440;11.084;2023-06-14T12:01:05;25.30;63.10
14687;DHT22;7431;49.440;11.084;2023-06-14T12:03:32;25.00;63.00
14687;DHT22;7431;49.440;11.084;2023-06-14T12:06:05;25.10;63.30
14687;DHT22;7431;49.440;11.084;2023-06-14T12:08:36;25.40;63.40
14687;DHT22;7431;49.440;11.084;2023-06-14T12:11:06;25.80;62.70
14687;DHT22;7431;49.440;11.084;2023-06-14T12:13:34;26.10;62.00
14687;DHT22;7431;49.440;11.084;2023-06-14T12:15:59;26.40;60.70
14687;DHT22;7431;49.440;11.084;2023-06-14T12:18:34;26.50;60.30
14687;DHT22;7431;49.440;11.084;2023-06-14T12:21:00;26.50;60.20
14687;DHT22;7431;49.440;11.084;2023-06-14T12:26:09;25.70;59.50
14687;DHT22;7431;49.440;11.084;2023-06-14T12:28:34;25.30;60.20
14687;DHT22;7431;49.440;11.084;2023-06-14T12:31:00;24.70;60.90
14687;DHT22;7431;49.440;11.084;2023-06-14T12:33:25;24.30;60.90
14687;DHT22;7431;49.440;11.084;2023-06-14T12:35:55;24.60;61.00
14687;DHT22;7431;49.440;11.084;2023-06-14T12:38:21;24.70;60.70
14687;DHT22;7431;49.440;11.084;2023-06-14T12:40:47;24.80;61.00
14687;DHT22;7431;49.440;11.084;2023-06-14T12:43:12;24.90;60.40
14687;DHT22;7431;49.440;11.084;2023-06-14T12:45:38;25.10;59.90
14687;DHT22;7431;49.440;11.084;2023-06-14T12:48:04;25.10;59.70
14687;DHT22;7431;49.440;11.084;2023-06-14T12:50:29;25.20;60.00
14687;DHT22;7431;49.440;11.084;2023-06-14T12:52:55;25.50;61.30
14687;DHT22;7431;49.440;11.084;2023-06-14T12:55:21;25.70;61.30
14687;DHT22;7431;49.440;11.084;2023-06-14T12:57:46;26.00;61.00
14687;DHT22;7431;49.440;11.084;2023-06-14T13:00:18;25.40;60.40
14687;DHT22;7431;49.440;11.084;2023-06-14T13:02:44;24.80;61.50
14687;DHT22;7431;49.440;11.084;2023-06-14T13:05:09;24.70;61.50
14687;DHT22;7431;49.440;11.084;2023-06-14T13:07:35;24.70;60.90
14687;DHT22;7431;49.440;11.084;2023-06-14T13:10:01;24.60;61.50
14687;DHT22;7431;49.440;11.084;2023-06-14T13:12:26;24.90;62.00
14687;DHT22;7431;49.440;11.084;2023-06-14T13:14:52;25.30;61.80
14687;DHT22;7431;49.440;11.084;2023-06-14T13:17:18;25.50;61.70
14687;DHT22;7431;49.440;11.084;2023-06-14T13:19:43;25.70;61.10
14687;DHT22;7431;49.440;11.084;2023-06-14T13:22:09;25.70;58.90
14687;DHT22;7431;49.440;11.084;2023-06-14T13:24:35;25.80;59.10
14687;DHT22;7431;49.440;11.084;2023-06-14T13:27:01;25.70;58.60
14687;DHT22;7431;49.440;11.084;2023-06-14T13:29:26;25.70;58.70
14687;DHT22;7431;49.440;11.084;2023-06-14T13:31:53;25.80;58.90
14687;DHT22;7431;49.440;11.084;2023-06-14T13:34:19;26.30;59.60
14687;DHT22;7431;49.440;11.084;2023-06-14T13:36:44;26.60;59.40
14687;DHT22;7431;49.440;11.084;2023-06-14T13:39:10;26.90;59.90
14687;DHT22;7431;49.440;11.084;2023-06-14T13:41:36;27.00;59.40
14687;DHT22;7431;49.440;11.084;2023-06-14T13:44:02;27.20;58.90
14687;DHT22;7431;49.440;11.084;2023-06-14T13:46:30;27.00;59.50
14687;DHT22;7431;49.440;11.084;2023-06-14T13:48:55;26.70;59.50
14687;DHT22;7431;49.440;11.084;2023-06-14T13:51:21;27.00;59.40
14687;DHT22;7431;49.440;11.084;2023-06-14T13:53:48;26.50;59.30
14687;DHT22;7431;49.440;11.084;2023-06-14T13:56:14;25.70;59.70
14687;DHT22;7431;49.440;11.084;2023-06-14T13:58:40;25.50;61.00
14687;DHT22;7431;49.440;11.084;2023-06-14T14:01:06;25.50;61.20
14687;DHT22;7431;49.440;11.084;2023-06-14T14:03:32;25.70;61.40
14687;DHT22;7431;49.440;11.084;2023-06-14T14:05:58;26.00;61.00
14687;DHT22;7431;49.440;11.084;2023-06-14T14:08:24;26.00;59.60
14687;DHT22;7431;49.440;11.084;2023-06-14T14:10:50;25.80;59.60
14687;DHT22;7431;49.440;11.084;2023-06-14T14:13:15;25.70;60.50
14687;DHT22;7431;49.440;11.084;2023-06-14T14:15:41;25.80;60.30
14687;DHT22;7431;49.440;11.084;2023-06-14T14:18:07;25.90;60.00
14687;DHT22;7431;49.440;11.084;2023-06-14T14:20:33;25.40;59.60
14687;DHT22;7431;49.440;11.084;2023-06-14T14:22:59;25.30;60.70
14687;DHT22;7431;49.440;11.084;2023-06-14T14:25:24;25.60;60.40
14687;DHT22;7431;49.440;11.084;2023-06-14T14:27:50;25.70;61.00
14687;DHT22;7431;49.440;11.084;2023-06-14T14:30:16;26.00;61.00
14687;DHT22;7431;49.440;11.084;2023-06-14T14:32:42;25.60;59.70
14687;DHT22;7431;49.440;11.084;2023-06-14T14:35:09;25.50;61.60
14687;DHT22;7431;49.440;11.084;2023-06-14T14:37:36;25.50;60.20
14687;DHT22;7431;49.440;11.084;2023-06-14T14:40:01;25.30;60.50
14687;DHT22;7431;49.440;11.084;2023-06-14T14:42:29;25.30;60.90
14687;DHT22;7431;49.440;11.084;2023-06-14T14:44:54;25.50;60.70
14687;DHT22;7431;49.440;11.084;2023-06-14T14:47:20;25.30;60.60
14687;DHT22;7431;49.440;11.084;2023-06-14T14:49:52;24.80;61.20
14687;DHT22;7431;49.440;11.084;2023-06-14T14:52:17;24.70;61.60
14687;DHT22;7431;49.440;11.084;2023-06-14T14:54:43;25.10;61.50
14687;DHT22;7431;49.440;11.084;2023-06-14T14:57:09;25.90;60.90
14687;DHT22;7431;49.440;11.084;2023-06-14T14:59:35;26.60;59.70
14687;DHT22;7431;49.440;11.084;2023-06-14T15:02:01;26.70;58.70
14687;DHT22;7431;49.440;11.084;2023-06-14T15:04:27;26.30;59.40
14687;DHT22;7431;49.440;11.084;2023-06-14T15:06:52;26.40;60.10
14687;DHT22;7431;49.440;11.084;2023-06-14T15:09:18;26.40;59.80
14687;DHT22;7431;49.440;11.084;2023-06-14T15:11:44;26.10;60.00
14687;DHT22;7431;49.440;11.084;2023-06-14T15:14:10;25.80;60.90
14687;DHT22;7431;49.440;11.084;2023-06-14T15:16:36;26.00;60.90
14687;DHT22;7431;49.440;11.084;2023-06-14T15:19:01;26.10;60.30
14687;DHT22;7431;49.440;11.084;2023-06-14T15:21:27;25.90;60.00
14687;DHT22;7431;49.440;11.084;2023-06-14T15:23:52;25.60;59.90
14687;DHT22;7431;49.440;11.084;2023-06-14T15:26:19;25.30;60.40
14687;DHT22;7431;49.440;11.084;2023-06-14T15:28:45;24.90;60.40
14687;DHT22;7431;49.440;11.084;2023-06-14T15:31:10;24.90;60.90
14687;DHT22;7431;49.440;11.084;2023-06-14T15:33:36;24.80;60.10
14687;DHT22;7431;49.440;11.084;2023-06-14T15:36:02;24.60;60.10
14687;DHT22;7431;49.440;11.084;2023-06-14T15:38:28;24.70;60.50
14687;DHT22;7431;49.440;11.084;2023-06-14T15:40:53;24.60;60.20
14687;DHT22;7431;49.440;11.084;2023-06-14T15:43:20;24.40;60.80
14687;DHT22;7431;49.440;11.084;2023-06-14T15:45:45;24.20;61.20
14687;DHT22;7431;49.440;11.084;2023-06-14T15:48:11;24.40;61.00